sensor_id;sensor_type;location;lat;lon;timestamp;P1;durP1;ratioP1;P2;durP2;ratioP2
69280;SDS011;56392;51.082;17.080;2023-05-07T00:04:53;7.63;;;3.40;;
69280;SDS011;56392;51.082;17.080;2023-05-07T00:10:17;8.00;;;3.70;;
69280;SDS011;56392;51.082;17.080;2023-05-07T00:15:41;7.68;;;3.40;;
69280;SDS011;56392;51.082;17.080;2023-05-07T00:21:04;9.05;;;3.35;;
69280;SDS011;56392;51.082;17.080;2023-05-07T00:26:27;7.70;;;3.07;;
69280;SDS011;56392;51.082;17.080;2023-05-07T00:31:52;7.97;;;3.22;;
69280;SDS011;56392;51.082;17.080;2023-05-07T00:37:16;8.45;;;3.30;;
69280;SDS011;56392;51.082;17.080;2023-05-07T00:42:39;10.47;;;3.80;;
69280;SDS011;56392;51.082;17.080;2023-05-07T00:48:03;10.90;;;3.53;;
69280;SDS011;56392;51.082;17.080;2023-05-07T00:53:26;8.45;;;3.33;;
69280;SDS011;56392;51.082;17.080;2023-05-07T00:58:50;9.15;;;3.30;;
69280;SDS011;56392;51.082;17.080;2023-05-07T01:04:14;9.07;;;3.40;;
69280;SDS011;56392;51.082;17.080;2023-05-07T01:09:37;8.40;;;3.65;;
69280;SDS011;56392;51.082;17.080;2023-05-07T01:15:01;8.48;;;3.38;;
69280;SDS011;56392;51.082;17.080;2023-05-07T01:20:26;8.70;;;3.40;;
69280;SDS011;56392;51.082;17.080;2023-05-07T01:25:52;9.07;;;3.50;;
69280;SDS011;56392;51.082;17.080;2023-05-07T01:31:16;9.95;;;4.53;;
69280;SDS011;56392;51.082;17.080;2023-05-07T01:36:40;10.20;;;4.13;;
69280;SDS011;56392;51.082;17.080;2023-05-07T01:42:06;8.30;;;3.60;;
69280;SDS011;56392;51.082;17.080;2023-05-07T01:47:29;9.45;;;3.90;;
69280;SDS011;56392;51.082;17.080;2023-05-07T01:52:53;9.57;;;4.30;;
69280;SDS011;56392;51.082;17.080;2023-05-07T01:58:17;10.33;;;4.53;;
69280;SDS011;56392;51.082;17.080;2023-05-07T02:03:40;9.85;;;3.97;;
69280;SDS011;56392;51.082;17.080;2023-05-07T02:09:04;9.32;;;3.92;;
69280;SDS011;56392;51.082;17.080;2023-05-07T02:14:29;8.20;;;3.73;;
69280;SDS011;56392;51.082;17.080;2023-05-07T02:19:52;11.05;;;3.90;;
69280;SDS011;56392;51.082;17.080;2023-05-07T02:25:15;7.38;;;3.47;;
69280;SDS011;56392;51.082;17.080;2023-05-07T02:30:39;9.20;;;3.80;;
69280;SDS011;56392;51.082;17.080;2023-05-07T02:36:06;9.17;;;3.83;;
69280;SDS011;56392;51.082;17.080;2023-05-07T02:41:29;9.30;;;4.18;;
69280;SDS011;56392;51.082;17.080;2023-05-07T02:46:54;8.65;;;3.72;;
69280;SDS011;56392;51.082;17.080;2023-05-07T02:52:16;9.10;;;3.80;;
69280;SDS011;56392;51.082;17.080;2023-05-07T02:57:40;10.20;;;4.35;;
69280;SDS011;56392;51.082;17.080;2023-05-07T03:03:05;8.52;;;3.53;;
69280;SDS011;56392;51.082;17.080;2023-05-07T03:08:28;8.23;;;3.87;;
69280;SDS011;56392;51.082;17.080;2023-05-07T03:13:51;9.80;;;3.80;;
69280;SDS011;56392;51.082;17.080;2023-05-07T03:19:15;8.40;;;3.67;;
69280;SDS011;56392;51.082;17.080;2023-05-07T03:24:38;10.30;;;3.60;;
69280;SDS011;56392;51.082;17.080;2023-05-07T03:30:01;8.53;;;3.57;;
69280;SDS011;56392;51.082;17.080;2023-05-07T03:35:26;10.32;;;3.70;;
69280;SDS011;56392;51.082;17.080;2023-05-07T03:40:49;9.50;;;3.65;;
69280;SDS011;56392;51.082;17.080;2023-05-07T03:46:12;8.10;;;3.00;;
69280;SDS011;56392;51.082;17.080;2023-05-07T03:51:36;7.50;;;2.90;;
69280;SDS011;56392;51.082;17.080;2023-05-07T03:56:59;8.55;;;3.20;;
69280;SDS011;56392;51.082;17.080;2023-05-07T04:02:23;6.77;;;2.90;;
69280;SDS011;56392;51.082;17.080;2023-05-07T04:07:47;8.75;;;2.90;;
69280;SDS011;56392;51.082;17.080;2023-05-07T04:13:10;9.27;;;2.88;;
69280;SDS011;56392;51.082;17.080;2023-05-07T04:18:33;7.13;;;2.50;;
69280;SDS011;56392;51.082;17.080;2023-05-07T04:23:57;7.10;;;3.20;;
69280;SDS011;56392;51.082;17.080;2023-05-07T04:29:20;7.78;;;3.30;;
69280;SDS011;56392;51.082;17.080;2023-05-07T04:34:43;7.63;;;3.13;;
69280;SDS011;56392;51.082;17.080;2023-05-07T04:40:08;6.53;;;2.80;;
69280;SDS011;56392;51.082;17.080;2023-05-07T04:45:31;7.45;;;3.35;;
69280;SDS011;56392;51.082;17.080;2023-05-07T04:50:55;7.18;;;3.10;;
69280;SDS011;56392;51.082;17.080;2023-05-07T04:56:19;8.27;;;2.80;;
69280;SDS011;56392;51.082;17.080;2023-05-07T05:01:43;7.13;;;2.88;;
69280;SDS011;56392;51.082;17.080;2023-05-07T05:07:06;7.40;;;2.63;;
69280;SDS011;56392;51.082;17.080;2023-05-07T05:12:30;6.83;;;2.60;;
69280;SDS011;56392;51.082;17.080;2023-05-07T05:17:53;6.93;;;2.60;;
69280;SDS011;56392;51.082;17.080;2023-05-07T05:23:16;8.57;;;2.75;;
69280;SDS011;56392;51.082;17.080;2023-05-07T05:28:40;6.35;;;2.80;;
69280;SDS011;56392;51.082;17.080;2023-05-07T05:34:04;9.10;;;3.40;;
69280;SDS011;56392;51.082;17.080;2023-05-07T05:39:27;8.50;;;3.40;;
69280;SDS011;56392;51.082;17.080;2023-05-07T05:44:51;8.00;;;3.60;;
69280;SDS011;56392;51.082;17.080;2023-05-07T05:50:14;8.10;;;3.47;;
69280;SDS011;56392;51.082;17.080;2023-05-07T05:55:37;7.68;;;3.70;;
69280;SDS011;56392;51.082;17.080;2023-05-07T06:01:01;8.10;;;3.20;;
69280;SDS011;56392;51.082;17.080;2023-05-07T06:06:25;7.70;;;3.30;;
69280;SDS011;56392;51.082;17.080;2023-05-07T06:11:48;8.17;;;3.30;;
69280;SDS011;56392;51.082;17.080;2023-05-07T06:17:13;8.20;;;3.38;;
69280;SDS011;56392;51.082;17.080;2023-05-07T06:22:36;6.53;;;2.95;;
69280;SDS011;56392;51.082;17.080;2023-05-07T06:27:59;6.97;;;2.73;;
69280;SDS011;56392;51.082;17.080;2023-05-07T06:33:23;7.72;;;2.38;;
69280;SDS011;56392;51.082;17.080;2023-05-07T06:38:46;6.95;;;2.50;;
69280;SDS011;56392;51.082;17.080;2023-05-07T06:44:09;6.57;;;2.47;;
69280;SDS011;56392;51.082;17.080;2023-05-07T06:49:33;8.70;;;3.20;;
69280;SDS011;56392;51.082;17.080;2023-05-07T06:54:56;6.50;;;2.90;;
69280;SDS011;56392;51.082;17.080;2023-05-07T07:00:19;6.60;;;2.80;;
69280;SDS011;56392;51.082;17.080;2023-05-07T07:05:44;8.50;;;2.80;;
69280;SDS011;56392;51.082;17.080;2023-05-07T07:11:07;7.45;;;2.50;;
69280;SDS011;56392;51.082;17.080;2023-05-07T07:16:30;6.93;;;2.50;;
69280;SDS011;56392;51.082;17.080;2023-05-07T07:21:55;7.33;;;2.67;;
69280;SDS011;56392;51.082;17.080;2023-05-07T07:27:18;5.88;;;2.30;;
69280;SDS011;56392;51.082;17.080;2023-05-07T07:32:41;6.70;;;2.47;;
69280;SDS011;56392;51.082;17.080;2023-05-07T07:38:06;6.97;;;2.70;;
69280;SDS011;56392;51.082;17.080;2023-05-07T07:43:29;6.13;;;2.40;;
69280;SDS011;56392;51.082;17.080;2023-05-07T07:48:52;5.68;;;2.22;;
69280;SDS011;56392;51.082;17.080;2023-05-07T07:54:19;6.40;;;2.70;;
69280;SDS011;56392;51.082;17.080;2023-05-07T07:59:42;6.47;;;2.70;;
69280;SDS011;56392;51.082;17.080;2023-05-07T08:05:05;7.60;;;3.10;;
69280;SDS011;56392;51.082;17.080;2023-05-07T08:10:30;8.48;;;3.17;;
69280;SDS011;56392;51.082;17.080;2023-05-07T08:15:55;7.03;;;3.07;;
69280;SDS011;56392;51.082;17.080;2023-05-07T08:21:18;7.70;;;3.35;;
69280;SDS011;56392;51.082;17.080;2023-05-07T08:26:43;7.43;;;3.33;;
69280;SDS011;56392;51.082;17.080;2023-05-07T08:32:06;8.80;;;3.40;;
69280;SDS011;56392;51.082;17.080;2023-05-07T08:37:29;8.23;;;3.50;;
69280;SDS011;56392;51.082;17.080;2023-05-07T08:42:54;11.15;;;3.42;;
69280;SDS011;56392;51.082;17.080;2023-05-07T08:48:18;8.97;;;3.60;;
69280;SDS011;56392;51.082;17.080;2023-05-07T08:53:44;9.47;;;3.63;;
69280;SDS011;56392;51.082;17.080;2023-05-07T08:59:11;8.60;;;4.10;;
69280;SDS011;56392;51.082;17.080;2023-05-07T09:04:34;8.85;;;4.03;;
69280;SDS011;56392;51.082;17.080;2023-05-07T09:09:57;8.33;;;3.90;;
69280;SDS011;56392;51.082;17.080;2023-05-07T09:15:22;8.05;;;3.63;;
69280;SDS011;56392;51.082;17.080;2023-05-07T09:20:45;9.43;;;3.85;;
69280;SDS011;56392;51.082;17.080;2023-05-07T09:26:08;7.80;;;3.67;;
69280;SDS011;56392;51.082;17.080;2023-05-07T09:31:36;8.48;;;3.67;;
69280;SDS011;56392;51.082;17.080;2023-05-07T09:37:00;8.50;;;3.70;;
69280;SDS011;56392;51.082;17.080;2023-05-07T09:42:23;7.93;;;3.70;;
69280;SDS011;56392;51.082;17.080;2023-05-07T09:47:49;9.33;;;4.13;;
69280;SDS011;56392;51.082;17.080;2023-05-07T09:53:15;10.40;;;5.10;;
69280;SDS011;56392;51.082;17.080;2023-05-07T09:58:40;8.35;;;4.10;;
69280;SDS011;56392;51.082;17.080;2023-05-07T10:04:06;9.50;;;4.50;;
69280;SDS011;56392;51.082;17.080;2023-05-07T10:09:29;7.82;;;4.00;;
69280;SDS011;56392;51.082;17.080;2023-05-07T10:14:53;8.52;;;3.60;;
69280;SDS011;56392;51.082;17.080;2023-05-07T10:20:18;6.93;;;3.20;;
69280;SDS011;56392;51.082;17.080;2023-05-07T10:25:42;8.27;;;3.00;;
69280;SDS011;56392;51.082;17.080;2023-05-07T10:31:08;8.68;;;3.22;;
69280;SDS011;56392;51.082;17.080;2023-05-07T10:36:44;7.83;;;3.13;;
69280;SDS011;56392;51.082;17.080;2023-05-07T10:42:08;6.90;;;3.20;;
69280;SDS011;56392;51.082;17.080;2023-05-07T10:47:31;7.28;;;3.13;;
69280;SDS011;56392;51.082;17.080;2023-05-07T10:58:50;8.80;;;3.03;;
69280;SDS011;56392;51.082;17.080;2023-05-07T11:04:13;7.38;;;2.80;;
69280;SDS011;56392;51.082;17.080;2023-05-07T11:15:35;6.70;;;2.73;;
69280;SDS011;56392;51.082;17.080;2023-05-07T11:21:03;6.90;;;2.90;;
69280;SDS011;56392;51.082;17.080;2023-05-07T11:26:28;7.43;;;3.20;;
69280;SDS011;56392;51.082;17.080;2023-05-07T11:31:54;7.07;;;2.93;;
69280;SDS011;56392;51.082;17.080;2023-05-07T11:37:19;7.47;;;2.83;;
69280;SDS011;56392;51.082;17.080;2023-05-07T11:42:44;6.55;;;2.83;;
69280;SDS011;56392;51.082;17.080;2023-05-07T11:48:07;7.55;;;2.92;;
69280;SDS011;56392;51.082;17.080;2023-05-07T11:53:35;5.93;;;2.30;;
69280;SDS011;56392;51.082;17.080;2023-05-07T11:59:00;6.60;;;2.53;;
69280;SDS011;56392;51.082;17.080;2023-05-07T12:04:23;7.30;;;2.97;;
69280;SDS011;56392;51.082;17.080;2023-05-07T12:09:46;7.33;;;2.73;;
69280;SDS011;56392;51.082;17.080;2023-05-07T12:15:13;7.18;;;2.97;;
69280;SDS011;56392;51.082;17.080;2023-05-07T12:20:38;7.60;;;2.60;;
69280;SDS011;56392;51.082;17.080;2023-05-07T12:26:02;7.30;;;2.73;;
69280;SDS011;56392;51.082;17.080;2023-05-07T12:31:27;7.47;;;2.50;;
69280;SDS011;56392;51.082;17.080;2023-05-07T12:36:50;7.15;;;2.90;;
69280;SDS011;56392;51.082;17.080;2023-05-07T12:42:14;7.72;;;3.20;;
69280;SDS011;56392;51.082;17.080;2023-05-07T12:47:43;8.47;;;3.27;;
69280;SDS011;56392;51.082;17.080;2023-05-07T12:53:07;7.57;;;3.25;;
69280;SDS011;56392;51.082;17.080;2023-05-07T12:58:33;6.60;;;2.88;;
69280;SDS011;56392;51.082;17.080;2023-05-07T13:04:02;6.30;;;2.63;;
69280;SDS011;56392;51.082;17.080;2023-05-07T13:09:27;7.50;;;3.10;;
69280;SDS011;56392;51.082;17.080;2023-05-07T13:14:50;7.57;;;2.97;;
69280;SDS011;56392;51.082;17.080;2023-05-07T13:20:14;7.10;;;3.20;;
69280;SDS011;56392;51.082;17.080;2023-05-07T13:25:38;8.37;;;3.10;;
69280;SDS011;56392;51.082;17.080;2023-05-07T13:31:01;7.90;;;3.60;;
69280;SDS011;56392;51.082;17.080;2023-05-07T13:36:25;6.63;;;3.05;;
69280;SDS011;56392;51.082;17.080;2023-05-07T13:41:49;7.43;;;2.90;;
69280;SDS011;56392;51.082;17.080;2023-05-07T13:47:13;8.52;;;2.90;;
69280;SDS011;56392;51.082;17.080;2023-05-07T13:52:37;7.95;;;2.92;;
69280;SDS011;56392;51.082;17.080;2023-05-07T13:58:02;6.97;;;3.20;;
69280;SDS011;56392;51.082;17.080;2023-05-07T14:03:25;8.00;;;3.17;;
69280;SDS011;56392;51.082;17.080;2023-05-07T14:08:49;7.20;;;2.92;;
69280;SDS011;56392;51.082;17.080;2023-05-07T14:14:12;7.93;;;3.27;;
69280;SDS011;56392;51.082;17.080;2023-05-07T14:19:36;6.73;;;2.80;;
69280;SDS011;56392;51.082;17.080;2023-05-07T14:25:00;8.48;;;2.60;;
69280;SDS011;56392;51.082;17.080;2023-05-07T14:30:23;6.72;;;3.10;;
69280;SDS011;56392;51.082;17.080;2023-05-07T14:35:46;6.67;;;2.90;;
69280;SDS011;56392;51.082;17.080;2023-05-07T14:41:12;8.90;;;2.92;;
69280;SDS011;56392;51.082;17.080;2023-05-07T14:46:35;8.55;;;3.15;;
69280;SDS011;56392;51.082;17.080;2023-05-07T14:51:58;7.83;;;3.10;;
69280;SDS011;56392;51.082;17.080;2023-05-07T14:57:23;6.80;;;3.05;;
69280;SDS011;56392;51.082;17.080;2023-05-07T15:02:46;12.40;;;3.15;;
69280;SDS011;56392;51.082;17.080;2023-05-07T15:08:09;7.63;;;3.23;;
69280;SDS011;56392;51.082;17.080;2023-05-07T15:13:33;9.57;;;3.40;;
69280;SDS011;56392;51.082;17.080;2023-05-07T15:18:56;8.20;;;3.25;;
69280;SDS011;56392;51.082;17.080;2023-05-07T15:24:19;8.35;;;3.45;;
69280;SDS011;56392;51.082;17.080;2023-05-07T15:29:44;8.43;;;3.27;;
69280;SDS011;56392;51.082;17.080;2023-05-07T15:35:07;7.15;;;3.30;;
69280;SDS011;56392;51.082;17.080;2023-05-07T15:40:31;7.30;;;3.40;;
69280;SDS011;56392;51.082;17.080;2023-05-07T15:45:57;7.70;;;3.47;;
69280;SDS011;56392;51.082;17.080;2023-05-07T15:51:21;7.78;;;3.55;;
69280;SDS011;56392;51.082;17.080;2023-05-07T15:56:44;9.10;;;3.50;;
69280;SDS011;56392;51.082;17.080;2023-05-07T16:02:09;10.27;;;3.77;;
69280;SDS011;56392;51.082;17.080;2023-05-07T16:07:32;8.00;;;3.97;;
69280;SDS011;56392;51.082;17.080;2023-05-07T16:12:56;8.63;;;3.53;;
69280;SDS011;56392;51.082;17.080;2023-05-07T16:18:21;7.72;;;3.50;;
69280;SDS011;56392;51.082;17.080;2023-05-07T16:23:44;8.97;;;3.83;;
69280;SDS011;56392;51.082;17.080;2023-05-07T16:29:07;8.75;;;3.50;;
69280;SDS011;56392;51.082;17.080;2023-05-07T16:34:32;8.48;;;3.25;;
69280;SDS011;56392;51.082;17.080;2023-05-07T16:39:55;7.67;;;3.30;;
69280;SDS011;56392;51.082;17.080;2023-05-07T16:45:20;7.20;;;3.15;;
69280;SDS011;56392;51.082;17.080;2023-05-07T16:50:44;8.52;;;4.30;;
69280;SDS011;56392;51.082;17.080;2023-05-07T16:56:07;8.67;;;3.60;;
69280;SDS011;56392;51.082;17.080;2023-05-07T17:01:31;8.30;;;3.40;;
69280;SDS011;56392;51.082;17.080;2023-05-07T17:06:55;8.70;;;3.90;;
69280;SDS011;56392;51.082;17.080;2023-05-07T17:12:18;8.77;;;4.30;;
69280;SDS011;56392;51.082;17.080;2023-05-07T17:17:41;9.57;;;3.87;;
69280;SDS011;56392;51.082;17.080;2023-05-07T17:23:05;10.55;;;4.57;;
69280;SDS011;56392;51.082;17.080;2023-05-07T17:28:28;8.98;;;3.97;;
69280;SDS011;56392;51.082;17.080;2023-05-07T17:33:52;10.07;;;4.20;;
69280;SDS011;56392;51.082;17.080;2023-05-07T17:39:16;9.80;;;4.55;;
69280;SDS011;56392;51.082;17.080;2023-05-07T17:44:39;9.50;;;4.78;;
69280;SDS011;56392;51.082;17.080;2023-05-07T17:50:02;12.97;;;6.60;;
69280;SDS011;56392;51.082;17.080;2023-05-07T17:55:32;9.37;;;4.43;;
69280;SDS011;56392;51.082;17.080;2023-05-07T18:01:00;9.02;;;4.25;;
69280;SDS011;56392;51.082;17.080;2023-05-07T18:06:23;8.93;;;4.13;;
69280;SDS011;56392;51.082;17.080;2023-05-07T18:11:48;9.40;;;4.07;;
69280;SDS011;56392;51.082;17.080;2023-05-07T18:17:11;8.68;;;4.00;;
69280;SDS011;56392;51.082;17.080;2023-05-07T18:22:34;9.88;;;4.13;;
69280;SDS011;56392;51.082;17.080;2023-05-07T18:27:58;8.50;;;3.90;;
69280;SDS011;56392;51.082;17.080;2023-05-07T18:33:21;9.02;;;4.53;;
69280;SDS011;56392;51.082;17.080;2023-05-07T18:38:44;8.07;;;4.03;;
69280;SDS011;56392;51.082;17.080;2023-05-07T18:44:09;8.80;;;4.00;;
69280;SDS011;56392;51.082;17.080;2023-05-07T18:49:32;11.87;;;4.17;;
69280;SDS011;56392;51.082;17.080;2023-05-07T18:54:55;10.65;;;4.50;;
69280;SDS011;56392;51.082;17.080;2023-05-07T19:00:19;8.80;;;4.32;;
69280;SDS011;56392;51.082;17.080;2023-05-07T19:05:43;9.83;;;4.17;;
69280;SDS011;56392;51.082;17.080;2023-05-07T19:11:06;9.55;;;4.40;;
69280;SDS011;56392;51.082;17.080;2023-05-07T19:16:31;9.10;;;4.40;;
69280;SDS011;56392;51.082;17.080;2023-05-07T19:21:54;9.57;;;4.67;;
69280;SDS011;56392;51.082;17.080;2023-05-07T19:27:17;8.95;;;4.28;;
69280;SDS011;56392;51.082;17.080;2023-05-07T19:32:41;9.05;;;4.15;;
69280;SDS011;56392;51.082;17.080;2023-05-07T19:38:04;11.07;;;3.97;;
69280;SDS011;56392;51.082;17.080;2023-05-07T19:43:29;9.97;;;4.10;;
69280;SDS011;56392;51.082;17.080;2023-05-07T19:48:57;10.13;;;4.32;;
69280;SDS011;56392;51.082;17.080;2023-05-07T19:54:21;9.32;;;4.20;;
69280;SDS011;56392;51.082;17.080;2023-05-07T19:59:45;8.60;;;4.30;;
69280;SDS011;56392;51.082;17.080;2023-05-07T20:05:09;11.73;;;4.20;;
69280;SDS011;56392;51.082;17.080;2023-05-07T20:10:34;10.68;;;3.90;;
69280;SDS011;56392;51.082;17.080;2023-05-07T20:15:57;9.37;;;4.03;;
69280;SDS011;56392;51.082;17.080;2023-05-07T20:21:23;9.35;;;4.15;;
69280;SDS011;56392;51.082;17.080;2023-05-07T20:26:47;9.00;;;3.90;;
69280;SDS011;56392;51.082;17.080;2023-05-07T20:32:10;8.83;;;4.00;;
69280;SDS011;56392;51.082;17.080;2023-05-07T20:37:37;8.93;;;4.20;;
69280;SDS011;56392;51.082;17.080;2023-05-07T20:43:00;8.02;;;3.72;;
69280;SDS011;56392;51.082;17.080;2023-05-07T20:48:24;10.07;;;4.03;;
69280;SDS011;56392;51.082;17.080;2023-05-07T20:53:52;11.00;;;4.03;;
69280;SDS011;56392;51.082;17.080;2023-05-07T20:59:15;7.93;;;3.70;;
69280;SDS011;56392;51.082;17.080;2023-05-07T21:04:38;8.48;;;3.88;;
69280;SDS011;56392;51.082;17.080;2023-05-07T21:10:03;6.23;;;2.30;;
69280;SDS011;56392;51.082;17.080;2023-05-07T21:15:27;6.70;;;2.30;;
69280;SDS011;56392;51.082;17.080;2023-05-07T21:20:50;6.55;;;2.28;;
69280;SDS011;56392;51.082;17.080;2023-05-07T21:26:17;6.03;;;2.17;;
69280;SDS011;56392;51.082;17.080;2023-05-07T21:31:42;5.50;;;1.97;;
69280;SDS011;56392;51.082;17.080;2023-05-07T21:37:05;6.13;;;2.20;;
69280;SDS011;56392;51.082;17.080;2023-05-07T21:42:29;6.20;;;2.30;;
69280;SDS011;56392;51.082;17.080;2023-05-07T21:47:52;8.00;;;2.17;;
69280;SDS011;56392;51.082;17.080;2023-05-07T21:53:15;7.25;;;2.53;;
69280;SDS011;56392;51.082;17.080;2023-05-07T21:58:39;6.40;;;2.47;;
69280;SDS011;56392;51.082;17.080;2023-05-07T22:04:03;7.40;;;2.90;;
69280;SDS011;56392;51.082;17.080;2023-05-07T22:09:26;6.55;;;2.40;;
69280;SDS011;56392;51.082;17.080;2023-05-07T22:14:50;7.20;;;2.40;;
69280;SDS011;56392;51.082;17.080;2023-05-07T22:20:13;6.80;;;2.33;;
69280;SDS011;56392;51.082;17.080;2023-05-07T22:25:36;6.00;;;2.30;;
69280;SDS011;56392;51.082;17.080;2023-05-07T22:31:01;8.80;;;2.60;;
69280;SDS011;56392;51.082;17.080;2023-05-07T22:36:24;7.47;;;2.80;;
69280;SDS011;56392;51.082;17.080;2023-05-07T22:41:47;7.37;;;2.67;;
69280;SDS011;56392;51.082;17.080;2023-05-07T22:47:12;7.78;;;3.00;;
69280;SDS011;56392;51.082;17.080;2023-05-07T22:52:35;9.23;;;2.90;;
69280;SDS011;56392;51.082;17.080;2023-05-07T22:57:58;9.17;;;2.87;;
69280;SDS011;56392;51.082;17.080;2023-05-07T23:03:22;7.35;;;2.70;;
69280;SDS011;56392;51.082;17.080;2023-05-07T23:08:45;7.05;;;3.15;;
69280;SDS011;56392;51.082;17.080;2023-05-07T23:14:08;7.03;;;2.80;;
69280;SDS011;56392;51.082;17.080;2023-05-07T23:19:33;8.50;;;3.00;;
69280;SDS011;56392;51.082;17.080;2023-05-07T23:24:56;8.75;;;3.30;;
69280;SDS011;56392;51.082;17.080;2023-05-07T23:30:19;10.52;;;3.42;;
69280;SDS011;56392;51.082;17.080;2023-05-07T23:35:43;8.67;;;3.50;;
69280;SDS011;56392;51.082;17.080;2023-05-07T23:41:06;10.10;;;3.60;;
69280;SDS011;56392;51.082;17.080;2023-05-07T23:46:29;11.13;;;5.60;;
69280;SDS011;56392;51.082;17.080;2023-05-07T23:51:53;10.13;;;4.33;;
69280;SDS011;56392;51.082;17.080;2023-05-07T23:57:16;10.13;;;4.10;;
